Time;durP1;ratioP1;P1;durP2;ratioP2;P2;SDS_P1;SDS_P2;PMS_P1;PMS_P2;Temp;Humidity;BMP_temperature;BMP_pressure;BME280_temperature;BME280_humidity;BME280_pressure;Samples;Min_cycle;Max_cycle;Signal;HPM_P1;HPM_P2
2022/08/20 00:04:20;;;;;;;29.30;27.17;;;;;;;20.51;88.17;99631.22;10415794;28;20456;-72
2022/08/20 00:09:21;;;;;;;28.00;26.05;;;;;;;20.27;89.82;99623.28;10416235;28;20061;-71
2022/08/20 00:14:23;;;;;;;29.45;26.98;;;;;;;20.20;90.08;99616.72;10423738;28;20042;-72
2022/08/20 00:19:25;;;;;;;31.92;29.45;;;;;;;20.35;89.21;99617.34;10424152;28;20072;-72
2022/08/20 00:24:27;;;;;;;32.47;29.67;;;;;;;20.34;89.21;99611.16;10423167;28;20503;-72
2022/08/20 00:29:29;;;;;;;32.88;30.45;;;;;;;20.12;91.79;99625.34;10423782;28;20064;-72
2022/08/20 00:34:31;;;;;;;30.70;28.58;;;;;;;20.16;90.95;99626.78;10422832;28;20041;-73
2022/08/20 00:39:33;;;;;;;32.90;30.23;;;;;;;20.20;90.10;99613.22;10422500;28;20049;-72
2022/08/20 00:44:42;;;;;;;32.05;29.50;;;;;;;20.11;90.99;99612.13;10423249;28;20053;-73
2022/08/20 00:49:44;;;;;;;36.05;32.60;;;;;;;20.03;92.03;99614.53;10423363;28;20078;-72
2022/08/20 00:54:50;;;;;;;34.45;31.55;;;;;;;19.81;94.05;99616.19;10421843;28;20059;-73
2022/08/20 00:59:52;;;;;;;;;;;;;;;20.04;92.99;99625.06;10425680;28;20037;-72
2022/08/20 01:04:55;;;;;;;38.25;34.53;;;;;;;19.87;94.01;99617.50;10422542;28;19967;-72
2022/08/20 01:09:59;;;;;;;38.50;34.58;;;;;;;19.74;97.65;99614.94;10424363;28;20034;-72
2022/08/20 01:15:03;;;;;;;38.33;34.65;;;;;;;19.80;97.11;99610.97;10421803;28;20057;-73
2022/08/20 01:20:10;;;;;;;38.38;34.65;;;;;;;19.72;98.36;99611.56;10421933;28;20038;-73
2022/08/20 01:25:33;;;;;;;42.45;37.65;;;;;;;19.51;100.00;99621.13;10421665;28;20073;-73
2022/08/20 01:30:36;;;;;;;40.97;36.58;;;;;;;19.56;100.00;99629.63;10422028;28;20439;-72
2022/08/20 01:35:40;;;;;;;36.65;33.08;;;;;;;19.50;100.00;99628.28;10422015;28;20129;-72
2022/08/20 01:40:56;;;;;;;36.90;33.45;;;;;;;19.44;100.00;99630.59;10422301;28;20045;-72
2022/08/20 01:45:58;;;;;;;42.17;37.80;;;;;;;19.38;100.00;99627.38;10421225;28;20423;-71
2022/08/20 01:51:06;;;;;;;43.10;38.47;;;;;;;19.55;100.00;99633.28;10420599;28;20044;-71
2022/08/20 01:56:10;;;;;;;44.90;39.97;;;;;;;19.49;100.00;99631.94;10420303;28;20041;-71
2022/08/20 02:01:32;;;;;;;44.25;39.20;;;;;;;19.41;100.00;99635.16;10419670;28;20042;-71
2022/08/20 02:06:53;;;;;;;44.10;39.45;;;;;;;19.35;100.00;99630.31;10419638;28;20045;-71
2022/08/20 02:11:58;;;;;;;51.83;41.58;;;;;;;19.15;100.00;99623.75;10419251;28;20041;-71
2022/08/20 02:16:59;;;;;;;51.72;40.58;;;;;;;19.30;100.00;99632.47;10419648;28;20045;-71
2022/08/20 02:22:07;;;;;;;51.67;42.13;;;;;;;19.25;100.00;99623.94;10419925;28;20137;-71
2022/08/20 02:27:09;;;;;;;52.08;43.10;;;;;;;19.25;100.00;99629.25;10419502;28;20519;-70
2022/08/20 02:32:11;;;;;;;56.38;43.83;;;;;;;19.12;100.00;99626.69;10420339;28;20052;-70
2022/08/20 02:37:34;;;;;;;53.63;42.67;;;;;;;19.14;100.00;99634.56;10417926;28;20038;-72
2022/08/20 02:42:37;;;;;;;50.50;40.17;;;;;;;19.11;100.00;99637.44;10418809;28;20052;-72
2022/08/20 02:47:39;;;;;;;63.55;44.35;;;;;;;18.97;100.00;99625.13;10418113;28;20041;-70
2022/08/20 02:52:41;;;;;;;58.53;43.28;;;;;;;19.08;100.00;99619.88;10418611;28;20052;-71
2022/08/20 02:57:54;;;;;;;56.17;43.55;;;;;;;19.14;100.00;99616.75;10418086;28;20052;-70
2022/08/20 03:02:59;;;;;;;51.58;41.25;;;;;;;19.09;100.00;99608.25;10419141;28;20042;-71
2022/08/20 03:08:02;;;;;;;52.05;41.53;;;;;;;18.99;100.00;99601.91;10417926;28;20415;-72
2022/08/20 03:13:05;;;;;;;59.03;43.13;;;;;;;18.86;100.00;99595.78;10417653;28;20056;-73
2022/08/20 03:18:07;;;;;;;52.30;41.33;;;;;;;18.78;100.00;99604.31;10417920;28;20041;-73
2022/08/20 03:23:09;;;;;;;42.85;38.40;;;;;;;18.99;100.00;99606.34;10416713;28;20045;-73
2022/08/20 03:28:12;;;;;;;40.58;36.50;;;;;;;18.98;100.00;99608.16;10416951;28;20049;-73
2022/08/20 03:33:15;;;;;;;34.45;31.50;;;;;;;18.90;100.00;99614.09;10416713;28;20076;-73
2022/08/20 03:38:19;;;;;;;33.97;30.63;;;;;;;18.83;100.00;99604.81;10416454;28;20077;-74
2022/08/20 03:43:34;;;;;;;26.73;24.95;;;;;;;18.86;100.00;99601.94;10417798;28;20124;-74
2022/08/20 03:48:36;;;;;;;25.73;24.02;;;;;;;18.81;100.00;99605.88;10416762;28;20076;-74
2022/08/20 03:53:38;;;;;;;22.35;20.85;;;;;;;18.87;100.00;99616.97;10415422;28;20056;-73
2022/08/20 03:58:39;;;;;;;21.92;20.42;;;;;;;18.92;100.00;99619.28;10416930;28;20057;-74
2022/08/20 04:03:41;;;;;;;21.05;19.58;;;;;;;18.78;100.00;99624.78;10417151;28;20045;-74
2022/08/20 04:08:43;;;;;;;20.38;19.00;;;;;;;18.87;100.00;99621.44;10415463;28;20041;-74
2022/08/20 04:13:44;;;;;;;18.83;17.52;;;;;;;18.76;100.00;99622.19;10416227;28;20048;-75
2022/08/20 04:18:47;;;;;;;14.95;13.95;;;;;;;18.80;100.00;99628.16;10416167;28;20042;-74
2022/08/20 04:24:04;;;;;;;12.70;11.60;;;;;;;18.83;100.00;99630.59;10416573;28;20129;-74
2022/08/20 04:29:07;;;;;;;10.82;10.10;;;;;;;18.93;100.00;99623.63;10415987;28;20521;-74
2022/08/20 04:34:09;;;;;;;10.90;10.20;;;;;;;18.85;100.00;99618.00;10414478;28;20041;-73
2022/08/20 04:39:10;;;;;;;10.73;9.93;;;;;;;18.73;100.00;99630.44;10415236;28;20042;-73
2022/08/20 04:44:12;;;;;;;9.18;8.48;;;;;;;18.82;100.00;99629.75;10415592;28;20061;-73
2022/08/20 04:49:14;;;;;;;7.72;7.15;;;;;;;18.68;100.00;99635.16;10414834;28;20042;-73
2022/08/20 04:54:15;;;;;;;6.95;6.45;;;;;;;18.73;100.00;99635.75;10415645;28;20056;-72
2022/08/20 04:59:17;;;;;;;7.18;6.60;;;;;;;18.63;100.00;99640.81;10418161;28;20053;-73
2022/08/20 05:04:19;;;;;;;8.60;8.00;;;;;;;18.73;100.00;99648.22;10421721;28;20045;-73
2022/08/20 05:09:20;;;;;;;9.95;9.25;;;;;;;18.57;100.00;99646.59;10422068;28;20052;-72
2022/08/20 05:14:22;;;;;;;15.43;14.18;;;;;;;18.52;100.00;99651.41;10421441;28;20055;-72
2022/08/20 05:19:24;;;;;;;17.88;16.63;;;;;;;18.43;100.00;99652.06;10423173;28;20048;-72
2022/08/20 05:24:26;;;;;;;19.48;18.17;;;;;;;18.40;100.00;99646.94;10421435;28;20563;-72
2022/08/20 05:29:27;;;;;;;21.20;19.60;;;;;;;18.37;100.00;99650.69;10420514;28;20052;-72
2022/08/20 05:34:29;;;;;;;19.27;17.92;;;;;;;18.42;100.00;99650.34;10420759;28;20053;-72
2022/08/20 05:39:31;;;;;;;19.52;18.17;;;;;;;18.37;100.00;99649.81;10419388;28;20033;-73
2022/08/20 05:44:38;;;;;;;18.02;16.77;;;;;;;18.48;100.00;99649.91;10419926;28;20052;-68
2022/08/20 05:49:39;;;;;;;18.73;17.42;;;;;;;18.47;100.00;99653.53;10420534;28;20053;-67
2022/08/20 05:54:41;;;;;;;22.73;21.13;;;;;;;18.40;100.00;99665.56;10419572;28;20044;-68
2022/08/20 05:59:42;;;;;;;23.85;22.23;;;;;;;18.39;100.00;99666.53;10419063;28;20042;-68
2022/08/20 06:04:44;;;;;;;25.27;23.38;;;;;;;18.27;100.00;99668.22;10418986;28;20092;-67
2022/08/20 06:09:56;;;;;;;25.92;23.85;;;;;;;18.48;100.00;99673.88;10419475;28;20041;-67
2022/08/20 06:14:58;;;;;;;29.77;26.92;;;;;;;18.33;100.00;99678.47;10419183;28;20562;-67
2022/08/20 06:20:03;;;;;;;30.35;27.40;;;;;;;18.51;100.00;99689.63;10419409;28;20483;-68
2022/08/20 06:25:07;;;;;;;29.20;26.90;;;;;;;18.43;100.00;99680.47;10418185;28;20049;-68
2022/08/20 06:30:12;;;;;;;27.50;25.00;;;;;;;18.64;100.00;99698.47;10418715;28;20049;-67
2022/08/20 06:35:14;;;;;;;30.97;28.20;;;;;;;18.49;100.00;99702.19;10417930;28;20052;-68
2022/08/20 06:40:26;;;;;;;36.55;32.88;;;;;;;18.43;100.00;99705.28;10417411;28;20041;-68
2022/08/20 06:45:30;;;;;;;37.70;33.75;;;;;;;18.26;100.00;99714.41;10418061;28;20069;-68
2022/08/20 06:50:38;;;;;;;38.90;34.90;;;;;;;18.35;100.00;99715.59;10419105;28;20499;-68
2022/08/20 06:55:53;;;;;;;38.28;33.97;;;;;;;18.37;100.00;99716.31;10417625;28;20049;-67
2022/08/20 07:00:55;;;;;;;39.45;35.25;;;;;;;18.37;100.00;99719.88;10417546;28;20041;-67
2022/08/20 07:05:58;;;;;;;40.67;36.00;;;;;;;18.45;100.00;99710.47;10417175;28;20045;-68
2022/08/20 07:11:00;;;;;;;43.50;37.05;;;;;;;18.29;100.00;99710.72;10416866;28;20096;-67
2022/08/20 07:16:03;;;;;;;42.75;36.63;;;;;;;18.41;100.00;99717.81;10417587;28;20069;-67
2022/08/20 07:21:05;;;;;;;47.50;38.67;;;;;;;18.36;100.00;99722.63;10415989;28;20072;-67
2022/08/20 07:26:07;;;;;;;49.95;39.60;;;;;;;18.36;100.00;99723.47;10415811;28;20083;-68
2022/08/20 07:36:32;;;;;;;46.70;37.83;;;;;;;18.48;100.00;99743.06;10415588;28;20092;-69
2022/08/20 07:41:33;;;;;;;49.10;36.65;;;;;;;18.49;100.00;99741.25;10415960;28;20038;-71
2022/08/20 07:46:35;;;;;;;38.80;34.67;;;;;;;18.42;100.00;99746.16;10415968;28;20037;-69
2022/08/20 07:51:37;;;;;;;51.00;38.95;;;;;;;18.63;100.00;99743.78;10415681;28;20049;-69
2022/08/20 07:56:38;;;;;;;68.13;44.45;;;;;;;18.51;100.00;99748.19;10415795;28;20064;-69
2022/08/20 08:01:40;;;;;;;64.43;45.63;;;;;;;18.83;100.00;99759.28;10415368;28;20045;-69
2022/08/20 08:06:44;;;;;;;65.05;46.67;;;;;;;19.00;100.00;99752.75;10415911;28;20049;-69
2022/08/20 08:11:49;;;;;;;63.97;45.92;;;;;;;19.20;100.00;99758.47;10415085;28;20044;-69
2022/08/20 08:16:54;;;;;;;67.07;46.67;;;;;;;19.22;100.00;99764.56;10415543;28;20050;-69
2022/08/20 08:21:56;;;;;;;60.08;46.90;;;;;;;19.10;100.00;99766.28;10416719;28;20045;-69
2022/08/20 08:26:59;;;;;;;61.53;46.72;;;;;;;19.09;100.00;99773.41;10417364;28;20559;-69
2022/08/20 08:32:02;;;;;;;67.15;47.17;;;;;;;19.12;100.00;99780.31;10415575;28;20451;-69
2022/08/20 08:37:04;;;;;;;56.75;45.60;;;;;;;19.34;100.00;99783.16;10422306;28;20414;-69
2022/08/20 08:42:24;;;;;;;67.78;48.75;;;;;;;19.25;100.00;99785.63;10420810;28;20487;-69
2022/08/20 08:47:33;;;;;;;63.70;45.80;;;;;;;19.32;100.00;99790.41;10421897;28;20396;-70
2022/08/20 08:52:39;;;;;;;69.25;49.53;;;;;;;19.25;100.00;99780.31;10422353;28;20124;-70
2022/08/20 08:57:41;;;;;;;;;;;;;;;19.32;100.00;99782.44;10422406;28;20052;-69
2022/08/20 09:03:32;;;;;;;60.15;46.70;;;;;;;19.35;100.00;99784.88;10422016;28;19927;-71
2022/08/20 09:08:52;;;;;;;48.75;41.75;;;;;;;19.26;100.00;99787.34;10279387;28;20047;-70
2022/08/20 09:13:55;;;;;;;48.13;42.92;;;;;;;19.29;100.00;99795.13;10296730;28;20054;-70
2022/08/20 09:18:56;;;;;;;46.55;41.08;;;;;;;19.39;100.00;99805.03;10295551;28;20409;-70
2022/08/20 09:23:58;;;;;;;46.08;40.72;;;;;;;19.24;100.00;99784.78;10295265;28;20059;-70
2022/08/20 09:29:00;;;;;;;43.75;39.00;;;;;;;19.31;100.00;99782.53;10295639;28;20057;-70
2022/08/20 09:34:02;;;;;;;42.88;38.38;;;;;;;19.39;100.00;99788.19;10295043;28;20054;-70
2022/08/20 09:39:03;;;;;;;42.42;38.15;;;;;;;19.36;100.00;99785.72;10294700;28;20477;-69
2022/08/20 09:44:05;;;;;;;50.45;41.88;;;;;;;19.45;100.00;99785.06;10377202;28;20111;-70
2022/08/20 09:49:07;;;;;;;55.45;42.80;;;;;;;19.40;100.00;99790.72;10419909;28;20045;-69
2022/08/20 09:54:10;;;;;;;55.60;44.42;;;;;;;19.48;100.00;99790.19;10419129;28;20038;-69
2022/08/20 09:59:14;;;;;;;47.65;42.53;;;;;;;19.70;100.00;99793.94;10419084;28;20407;-69
2022/08/20 10:04:15;;;;;;;48.50;43.30;;;;;;;19.65;100.00;99786.28;10419350;28;20088;-69
2022/08/20 10:09:17;;;;;;;50.53;43.42;;;;;;;19.87;100.00;99789.06;10418813;28;20054;-69
2022/08/20 10:14:19;;;;;;;52.28;43.78;;;;;;;20.05;100.00;99797.53;10418168;28;20077;-70
2022/08/20 10:19:21;;;;;;;47.92;40.25;;;;;;;19.99;100.00;99803.31;10416799;28;20041;-70
2022/08/20 10:24:25;;;;;;;45.63;40.90;;;;;;;19.88;100.00;99801.47;10418668;28;20411;-71
2022/08/20 10:29:28;;;;;;;43.53;39.17;;;;;;;19.81;100.00;99807.38;10419368;28;20509;-70
2022/08/20 10:34:29;;;;;;;52.05;45.15;;;;;;;19.74;100.00;99820.28;10418066;28;20045;-70
2022/08/20 10:39:31;;;;;;;45.22;40.78;;;;;;;19.66;100.00;99822.69;10418278;28;20128;-70
2022/08/20 10:44:33;;;;;;;47.72;42.25;;;;;;;19.58;100.00;99815.19;10417566;28;20056;-70
2022/08/20 10:49:35;;;;;;;52.80;44.30;;;;;;;19.60;100.00;99831.06;10417632;28;20045;-70
2022/08/20 10:54:40;;;;;;;50.22;42.92;;;;;;;19.63;100.00;99829.06;10416909;28;20049;-70
2022/08/20 10:59:44;;;;;;;49.67;44.40;;;;;;;19.48;100.00;99832.84;10417751;28;20041;-70
2022/08/20 11:04:47;;;;;;;48.70;43.33;;;;;;;19.54;100.00;99815.53;10417739;28;20048;-70
2022/08/20 11:09:49;;;;;;;49.42;43.58;;;;;;;19.49;100.00;99820.34;10417195;28;20501;-70
2022/08/20 11:14:52;;;;;;;57.90;46.03;;;;;;;19.37;100.00;99817.59;10417400;28;20056;-70
2022/08/20 11:19:55;;;;;;;64.55;50.47;;;;;;;19.26;100.00;99820.19;10417073;28;20045;-70
2022/08/20 11:24:56;;;;;;;54.25;47.25;;;;;;;19.33;100.00;99818.78;10416570;28;20056;-71
2022/08/20 11:29:58;;;;;;;63.55;49.25;;;;;;;19.25;100.00;99830.94;10416387;28;20064;-70
2022/08/20 11:35:00;;;;;;;58.00;46.67;;;;;;;19.26;100.00;99840.66;10414669;28;20050;-70
2022/08/20 11:40:23;;;;;;;53.80;46.67;;;;;;;19.23;100.00;99846.19;10416358;28;20046;-70
2022/08/20 11:45:24;;;;;;;49.47;44.45;;;;;;;19.37;100.00;99846.91;10416154;28;20076;-75
2022/08/20 11:50:26;;;;;;;46.85;41.95;;;;;;;19.32;100.00;99857.03;10417763;28;20038;-74
2022/08/20 11:55:28;;;;;;;45.42;40.40;;;;;;;19.47;100.00;99865.75;10417606;28;20046;-75
2022/08/20 12:00:32;;;;;;;41.47;37.88;;;;;;;19.59;100.00;99864.88;10416524;28;20132;-75
2022/08/20 12:05:35;;;;;;;40.38;36.78;;;;;;;19.55;100.00;99862.56;10415768;28;20046;-75
2022/08/20 12:10:37;;;;;;;39.45;36.38;;;;;;;19.53;100.00;99868.00;10425096;28;20045;-74
2022/08/20 12:15:39;;;;;;;40.70;36.60;;;;;;;19.49;100.00;99868.34;10424445;28;20076;-74
2022/08/20 12:20:40;;;;;;;39.08;35.85;;;;;;;19.51;100.00;99869.06;10424151;28;20046;-75
2022/08/20 12:25:42;;;;;;;41.90;37.97;;;;;;;19.29;100.00;99875.06;10423482;28;20057;-73
2022/08/20 12:30:44;;;;;;;40.45;36.85;;;;;;;19.32;100.00;99872.19;10423434;28;20041;-74
2022/08/20 12:35:45;;;;;;;39.95;36.22;;;;;;;19.36;100.00;99877.19;10422992;28;20432;-74
2022/08/20 12:40:47;;;;;;;41.40;37.33;;;;;;;19.34;100.00;99870.25;10421821;28;20065;-73
2022/08/20 12:45:49;;;;;;;40.25;36.80;;;;;;;19.35;100.00;99871.97;10421196;28;20053;-73
2022/08/20 12:50:51;;;;;;;39.03;35.40;;;;;;;19.39;100.00;99886.81;10423998;28;20050;-74
2022/08/20 12:55:53;;;;;;;40.33;36.40;;;;;;;19.36;100.00;99879.84;10423000;28;20077;-73
2022/08/20 13:00:55;;;;;;;42.28;38.42;;;;;;;19.38;100.00;99877.06;10423475;28;20033;-73
2022/08/20 13:06:00;;;;;;;42.67;38.63;;;;;;;19.34;100.00;99880.91;10422121;28;20053;-74
2022/08/20 13:11:01;;;;;;;42.05;38.17;;;;;;;19.35;100.00;99867.50;10421692;28;20471;-75
2022/08/20 13:16:03;;;;;;;40.47;36.60;;;;;;;19.40;100.00;99865.34;10420604;28;20050;-73
2022/08/20 13:21:05;;;;;;;41.22;36.92;;;;;;;19.37;100.00;99870.03;10419488;28;20064;-73
2022/08/20 13:26:07;;;;;;;40.67;36.63;;;;;;;19.40;100.00;99876.03;10420470;28;20046;-74
2022/08/20 13:31:08;;;;;;;43.30;38.85;;;;;;;19.51;100.00;99872.56;10420473;28;20065;-73
2022/08/20 13:36:11;;;;;;;39.58;35.88;;;;;;;19.51;100.00;99871.72;10420729;28;20049;-75
2022/08/20 13:41:12;;;;;;;38.30;35.13;;;;;;;19.39;100.00;99874.31;10419728;28;20072;-74
2022/08/20 13:46:14;;;;;;;37.97;34.72;;;;;;;19.48;100.00;99878.16;10420595;28;20042;-73
2022/08/20 13:51:16;;;;;;;38.33;35.15;;;;;;;19.56;100.00;99875.75;10419971;28;20064;-74
2022/08/20 13:56:19;;;;;;;38.63;35.45;;;;;;;19.52;100.00;99874.31;10419437;28;20049;-74
2022/08/20 14:01:21;;;;;;;42.22;38.17;;;;;;;19.53;100.00;99870.66;10420503;28;20045;-73
2022/08/20 14:06:23;;;;;;;42.30;38.25;;;;;;;19.73;100.00;99871.06;10419979;28;20052;-76
2022/08/20 14:11:24;;;;;;;42.13;38.22;;;;;;;19.62;100.00;99870.03;10419818;28;20042;-73
2022/08/20 14:16:26;;;;;;;39.35;35.97;;;;;;;19.68;100.00;99865.22;10419837;28;20052;-74
2022/08/20 14:21:30;;;;;;;38.83;35.42;;;;;;;19.59;100.00;99864.03;10420463;28;20434;-75
2022/08/20 14:26:31;;;;;;;38.25;34.92;;;;;;;19.47;100.00;99876.41;10418535;28;20056;-74
2022/08/20 14:31:33;;;;;;;32.25;29.85;;;;;;;19.47;100.00;99872.91;10419003;28;20407;-73
2022/08/20 14:36:34;;;;;;;31.95;29.33;;;;;;;19.67;100.00;99879.53;10419286;28;20045;-74
2022/08/20 14:41:36;;;;;;;32.85;30.15;;;;;;;19.60;100.00;99871.94;10418428;28;20042;-74
2022/08/20 14:46:38;;;;;;;36.63;33.33;;;;;;;19.35;100.00;99877.31;10418088;28;20081;-75
2022/08/20 14:51:39;;;;;;;37.22;34.22;;;;;;;19.29;100.00;99872.41;10418756;28;20056;-75
2022/08/20 14:56:41;;;;;;;32.88;30.60;;;;;;;19.35;100.00;99872.84;10418080;28;20450;-74
2022/08/20 15:01:43;;;;;;;36.22;32.95;;;;;;;19.39;100.00;99874.31;10418147;28;20045;-74
2022/08/20 15:06:45;;;;;;;35.28;32.28;;;;;;;19.38;100.00;99872.59;10417259;28;20076;-75
2022/08/20 15:11:47;;;;;;;36.63;33.65;;;;;;;19.35;100.00;99872.84;10415728;28;20048;-74
2022/08/20 15:16:49;;;;;;;34.42;31.63;;;;;;;19.58;100.00;99876.53;10417196;28;20053;-75
2022/08/20 15:21:50;;;;;;;31.10;28.98;;;;;;;19.62;100.00;99875.38;10417643;28;20060;-74
2022/08/20 15:26:52;;;;;;;26.63;25.02;;;;;;;19.63;100.00;99876.22;10417910;28;20047;-74
2022/08/20 15:31:54;;;;;;;29.20;27.27;;;;;;;19.52;100.00;99873.44;10416740;28;20044;-74
2022/08/20 15:36:56;;;;;;;30.27;27.90;;;;;;;19.22;100.00;99877.31;10418119;28;20480;-75
2022/08/20 15:41:58;;;;;;;34.22;31.83;;;;;;;19.04;100.00;99889.25;10415857;28;20037;-74
2022/08/20 15:47:15;;;;;;;32.63;30.33;;;;;;;19.36;100.00;99887.00;10416557;28;20053;-74
2022/08/20 15:52:16;;;;;;;28.88;26.75;;;;;;;19.26;100.00;99886.81;10416830;28;20038;-73
2022/08/20 15:57:41;;;;;;;29.45;27.60;;;;;;;19.26;100.00;99892.13;10416436;28;20045;-73
2022/08/20 16:03:03;;;;;;;29.95;28.15;;;;;;;19.11;100.00;99894.03;10413768;28;20057;-75
2022/08/20 16:08:11;;;;;;;28.50;26.80;;;;;;;19.08;100.00;99893.38;10417668;28;20063;-74
2022/08/20 16:13:37;;;;;;;29.88;28.00;;;;;;;19.21;100.00;99896.06;10417328;28;20037;-75
2022/08/20 16:18:40;;;;;;;29.08;26.92;;;;;;;19.24;100.00;99891.38;10417193;28;20450;-74
2022/08/20 16:23:42;;;;;;;33.08;30.83;;;;;;;19.25;100.00;99894.88;10418020;28;20133;-75
2022/08/20 16:29:12;;;;;;;32.33;30.13;;;;;;;19.18;100.00;99899.81;10416261;28;20049;-74
2022/08/20 16:34:29;;;;;;;26.38;24.77;;;;;;;19.09;100.00;99898.63;10417189;28;20052;-74
2022/08/20 16:39:57;;;;;;;29.88;27.40;;;;;;;19.15;100.00;99908.00;10416587;28;20041;-74
2022/08/20 16:44:59;;;;;;;30.00;28.15;;;;;;;19.03;100.00;99909.69;10415181;28;20115;-74
2022/08/20 16:50:05;;;;;;;31.00;28.90;;;;;;;18.83;100.00;99913.72;10416709;28;20491;-74
2022/08/20 16:55:07;;;;;;;37.08;33.92;;;;;;;18.84;100.00;99925.22;10420058;28;20112;-75
2022/08/20 17:00:18;;;;;;;32.55;30.38;;;;;;;18.86;100.00;99923.34;10423105;28;20050;-74
2022/08/20 17:05:22;;;;;;;30.73;28.75;;;;;;;18.82;100.00;99932.50;10423025;28;20059;-74
2022/08/20 17:10:51;;;;;;;33.08;30.55;;;;;;;18.84;100.00;99935.88;10423796;28;20385;-74
2022/08/20 17:16:13;;;;;;;32.50;30.33;;;;;;;18.95;100.00;99929.81;10421962;28;20060;-75
2022/08/20 17:21:23;;;;;;;31.35;29.35;;;;;;;18.96;100.00;99929.75;10423199;28;20129;-75
2022/08/20 17:26:41;;;;;;;30.27;28.50;;;;;;;18.87;100.00;99931.22;10423097;28;20041;-75
2022/08/20 17:31:47;;;;;;;37.63;34.28;;;;;;;19.03;100.00;99936.34;10422943;28;20446;-75
2022/08/20 17:36:51;;;;;;;36.43;33.73;;;;;;;18.79;100.00;99943.34;10422032;28;20503;-75
2022/08/20 17:42:04;;;;;;;37.83;34.78;;;;;;;18.76;100.00;99935.53;10422945;28;20088;-75
2022/08/20 17:47:12;;;;;;;40.65;36.95;;;;;;;18.94;100.00;99950.28;10421684;28;20045;-71
2022/08/20 17:52:33;;;;;;;38.53;35.15;;;;;;;18.98;100.00;99953.59;10421478;28;20041;-71
2022/08/20 17:57:39;;;;;;;37.45;34.25;;;;;;;18.94;100.00;99942.28;10421539;28;20056;-72
2022/08/20 18:02:42;;;;;;;37.80;34.42;;;;;;;18.89;100.00;99953.25;10422340;28;20041;-72
2022/08/20 18:07:55;;;;;;;34.10;31.60;;;;;;;18.72;100.00;99958.00;10420045;28;20056;-71
2022/08/20 18:13:08;;;;;;;37.70;34.60;;;;;;;18.64;100.00;99961.16;10418711;28;20033;-72
2022/08/20 18:18:31;;;;;;;33.97;31.77;;;;;;;18.60;100.00;99963.19;10420522;28;20412;-72
2022/08/20 18:23:41;;;;;;;38.65;35.40;;;;;;;18.51;100.00;99958.47;10419731;28;20052;-73
2022/08/20 18:28:55;;;;;;;34.55;31.95;;;;;;;18.54;100.00;99970.69;10419877;28;20143;-72
2022/08/20 18:34:08;;;;;;;31.52;29.52;;;;;;;18.52;100.00;99962.81;10420102;28;20045;-71
2022/08/20 18:39:24;;;;;;;30.13;28.05;;;;;;;18.45;100.00;99960.66;10419145;28;20056;-71
2022/08/20 18:44:34;;;;;;;34.35;31.70;;;;;;;18.55;100.00;99975.06;10416929;28;20057;-71
2022/08/20 18:49:39;;;;;;;32.33;29.77;;;;;;;18.51;100.00;99971.78;10418624;28;20037;-71
2022/08/20 18:54:53;;;;;;;33.40;30.95;;;;;;;18.61;100.00;99972.00;10418275;28;20041;-72
2022/08/20 19:00:13;;;;;;;33.95;31.63;;;;;;;18.84;100.00;99975.84;10418410;28;20474;-72
2022/08/20 19:05:25;;;;;;;33.80;31.23;;;;;;;18.83;100.00;99976.78;10420146;28;20388;-72
2022/08/20 19:10:48;;;;;;;33.78;31.25;;;;;;;18.69;100.00;99993.69;10419789;28;20041;-72
2022/08/20 19:15:57;;;;;;;34.08;31.45;;;;;;;18.58;100.00;99978.38;10418360;28;20060;-71
2022/08/20 19:21:02;;;;;;;35.88;32.83;;;;;;;18.58;100.00;99978.38;10418836;28;20069;-73
2022/08/20 19:26:12;;;;;;;33.00;30.48;;;;;;;18.50;100.00;99986.00;10418342;28;20048;-72
2022/08/20 19:31:32;;;;;;;34.30;31.88;;;;;;;18.36;100.00;99983.41;10417763;28;20164;-71
2022/08/20 19:36:35;;;;;;;31.55;29.25;;;;;;;18.29;100.00;99982.94;10420395;28;20045;-71
2022/08/20 19:41:48;;;;;;;36.05;33.13;;;;;;;18.33;100.00;99979.16;10417463;28;20396;-72
2022/08/20 19:46:51;;;;;;;34.70;31.80;;;;;;;18.52;100.00;99973.47;10416826;28;20422;-72
2022/08/20 19:52:07;;;;;;;33.63;31.13;;;;;;;18.47;100.00;99967.59;10416947;28;20121;-72
2022/08/20 19:57:10;;;;;;;37.65;34.45;;;;;;;18.40;100.00;99968.94;10418782;28;20503;-72
2022/08/20 20:02:15;;;;;;;35.08;32.30;;;;;;;18.35;100.00;99965.72;10418152;28;20049;-71
2022/08/20 20:07:36;;;;;;;37.47;34.55;;;;;;;18.32;100.00;99968.56;10417796;28;20072;-73
2022/08/20 20:12:38;;;;;;;43.47;38.17;;;;;;;18.38;100.00;99966.38;10416274;28;20037;-72
2022/08/20 20:17:40;;;;;;;41.88;37.78;;;;;;;18.45;100.00;99964.16;10417003;28;20049;-72
2022/08/20 20:22:58;;;;;;;44.13;39.65;;;;;;;18.36;100.00;99962.97;10417928;28;20060;-72
2022/08/20 20:28:20;;;;;;;52.92;41.80;;;;;;;18.27;100.00;99962.72;10420262;28;20037;-72
2022/08/20 20:33:35;;;;;;;44.90;40.08;;;;;;;18.35;100.00;99963.06;10424663;28;20037;-73
2022/08/20 20:38:55;;;;;;;43.78;39.08;;;;;;;18.28;100.00;99953.75;10425457;28;20041;-72
2022/08/20 20:44:00;;;;;;;42.80;38.38;;;;;;;18.22;100.00;99946.19;10424540;28;20037;-72
2022/08/20 20:49:08;;;;;;;48.83;42.77;;;;;;;18.33;100.00;99941.88;10423962;28;20042;-73
2022/08/20 20:54:40;;;;;;;50.50;43.72;;;;;;;18.19;100.00;99939.25;10424389;28;20484;-73
2022/08/20 20:59:44;;;;;;;48.75;41.28;;;;;;;18.12;100.00;99941.47;10422700;28;20479;-72
2022/08/20 21:04:48;;;;;;;51.80;41.65;;;;;;;18.12;100.00;99936.16;10423501;28;20045;-72
2022/08/20 21:09:53;;;;;;;51.92;42.38;;;;;;;18.12;100.00;99937.97;10424256;28;20045;-71
2022/08/20 21:14:55;;;;;;;46.00;39.83;;;;;;;18.16;100.00;99934.16;10424473;28;20042;-72
2022/08/20 21:19:59;;;;;;;51.78;42.15;;;;;;;18.24;100.00;99918.53;10422177;28;20510;-72
2022/08/20 21:25:02;;;;;;;57.03;44.72;;;;;;;18.19;100.00;99919.78;10422979;28;20132;-72
2022/08/20 21:30:05;;;;;;;70.95;50.17;;;;;;;18.10;100.00;99907.94;10422803;28;20041;-71
2022/08/20 21:35:08;;;;;;;59.45;46.58;;;;;;;18.12;100.00;99904.22;10421543;28;20123;-71
2022/08/20 21:40:11;;;;;;;61.25;45.67;;;;;;;18.08;100.00;99908.03;10421292;28;20557;-72
2022/08/20 21:45:15;;;;;;;59.20;46.08;;;;;;;18.07;100.00;99910.81;10423203;28;20037;-72
2022/08/20 21:50:20;;;;;;;71.30;50.08;;;;;;;18.07;100.00;99913.47;10421763;28;20045;-72
2022/08/20 21:55:21;;;;;;;55.30;44.50;;;;;;;18.08;100.00;99902.72;10421580;28;20045;-71
2022/08/20 22:00:45;;;;;;;52.60;42.22;;;;;;;18.11;100.00;99902.53;10421709;28;20084;-71
2022/08/20 22:05:47;;;;;;;44.83;39.75;;;;;;;18.18;100.00;99897.63;10421751;28;20037;-71
2022/08/20 22:10:52;;;;;;;37.47;34.17;;;;;;;18.34;100.00;99893.03;10421078;28;20052;-72
2022/08/20 22:15:53;;;;;;;35.22;31.98;;;;;;;18.34;100.00;99894.84;10419294;28;20045;-72
2022/08/20 22:20:56;;;;;;;37.03;33.63;;;;;;;18.29;100.00;99895.16;10419939;28;20394;-72
2022/08/20 22:25:57;;;;;;;34.05;31.00;;;;;;;18.38;100.00;99896.34;10420718;28;20123;-72
2022/08/20 22:30:59;;;;;;;36.30;32.97;;;;;;;18.44;100.00;99893.28;10420016;28;20107;-73
2022/08/20 22:36:03;;;;;;;38.33;34.67;;;;;;;18.28;100.00;99897.88;10419672;28;20124;-72
2022/08/20 22:41:05;;;;;;;35.08;31.98;;;;;;;18.46;100.00;99899.34;10418881;28;20050;-72
2022/08/20 22:46:13;;;;;;;33.60;30.92;;;;;;;18.31;100.00;99900.34;10419111;28;20056;-71
2022/08/20 22:51:32;;;;;;;37.95;34.45;;;;;;;18.25;100.00;99898.09;10417992;28;20507;-72
2022/08/20 22:56:36;;;;;;;37.05;33.50;;;;;;;18.17;100.00;99897.75;10418632;28;20046;-72
2022/08/20 23:01:38;;;;;;;39.88;35.95;;;;;;;18.08;100.00;99904.53;10417572;28;20069;-72